sensor_id;sensor_type;location;lat;lon;timestamp;P1;durP1;ratioP1;P2;durP2;ratioP2
2175;SDS011;1094;49.902;10.876;2022-12-18T00:02:18;58.10;;;42.00;;
2175;SDS011;1094;49.902;10.876;2022-12-18T00:04:44;49.87;;;42.43;;
2175;SDS011;1094;49.902;10.876;2022-12-18T00:07:10;53.00;;;44.13;;
2175;SDS011;1094;49.902;10.876;2022-12-18T00:09:36;54.28;;;43.80;;
2175;SDS011;1094;49.902;10.876;2022-12-18T00:12:02;54.70;;;44.70;;
2175;SDS011;1094;49.902;10.876;2022-12-18T00:14:28;58.80;;;45.40;;
2175;SDS011;1094;49.902;10.876;2022-12-18T00:16:54;51.37;;;44.00;;
2175;SDS011;1094;49.902;10.876;2022-12-18T00:19:20;62.77;;;46.37;;
2175;SDS011;1094;49.902;10.876;2022-12-18T00:21:46;51.63;;;45.38;;
2175;SDS011;1094;49.902;10.876;2022-12-18T00:24:12;49.47;;;41.77;;
2175;SDS011;1094;49.902;10.876;2022-12-18T00:26:38;53.88;;;43.13;;
2175;SDS011;1094;49.902;10.876;2022-12-18T00:29:09;60.72;;;46.90;;
2175;SDS011;1094;49.902;10.876;2022-12-18T00:31:36;58.28;;;46.10;;
2175;SDS011;1094;49.902;10.876;2022-12-18T00:34:03;54.70;;;45.35;;
2175;SDS011;1094;49.902;10.876;2022-12-18T00:36:30;55.08;;;42.60;;
2175;SDS011;1094;49.902;10.876;2022-12-18T00:38:57;59.72;;;46.55;;
2175;SDS011;1094;49.902;10.876;2022-12-18T00:41:23;61.25;;;43.08;;
2175;SDS011;1094;49.902;10.876;2022-12-18T00:44:09;55.72;;;44.55;;
2175;SDS011;1094;49.902;10.876;2022-12-18T00:46:36;48.63;;;43.17;;
2175;SDS011;1094;49.902;10.876;2022-12-18T00:49:02;49.80;;;44.37;;
2175;SDS011;1094;49.902;10.876;2022-12-18T00:51:28;64.75;;;42.50;;
2175;SDS011;1094;49.902;10.876;2022-12-18T00:53:54;58.10;;;42.88;;
2175;SDS011;1094;49.902;10.876;2022-12-18T00:56:20;55.27;;;43.87;;
2175;SDS011;1094;49.902;10.876;2022-12-18T00:58:46;48.47;;;43.07;;
2175;SDS011;1094;49.902;10.876;2022-12-18T01:01:11;52.90;;;43.40;;
2175;SDS011;1094;49.902;10.876;2022-12-18T01:03:37;50.47;;;42.28;;
2175;SDS011;1094;49.902;10.876;2022-12-18T01:06:07;55.67;;;41.22;;
2175;SDS011;1094;49.902;10.876;2022-12-18T01:08:33;51.00;;;41.38;;
2175;SDS011;1094;49.902;10.876;2022-12-18T01:10:59;52.60;;;42.45;;
2175;SDS011;1094;49.902;10.876;2022-12-18T01:13:25;50.97;;;43.43;;
2175;SDS011;1094;49.902;10.876;2022-12-18T01:15:51;48.63;;;40.87;;
2175;SDS011;1094;49.902;10.876;2022-12-18T01:18:17;56.88;;;43.47;;
2175;SDS011;1094;49.902;10.876;2022-12-18T01:20:43;55.15;;;40.13;;
2175;SDS011;1094;49.902;10.876;2022-12-18T01:23:09;49.60;;;41.53;;
2175;SDS011;1094;49.902;10.876;2022-12-18T01:25:38;53.03;;;42.13;;
2175;SDS011;1094;49.902;10.876;2022-12-18T01:28:04;53.75;;;42.75;;
2175;SDS011;1094;49.902;10.876;2022-12-18T01:30:30;45.42;;;38.90;;
2175;SDS011;1094;49.902;10.876;2022-12-18T01:32:56;51.53;;;41.33;;
2175;SDS011;1094;49.902;10.876;2022-12-18T01:35:22;44.97;;;40.10;;
2175;SDS011;1094;49.902;10.876;2022-12-18T01:37:48;48.10;;;41.20;;
2175;SDS011;1094;49.902;10.876;2022-12-18T01:40:14;52.07;;;40.97;;
2175;SDS011;1094;49.902;10.876;2022-12-18T01:42:40;47.17;;;40.63;;
2175;SDS011;1094;49.902;10.876;2022-12-18T01:45:22;45.63;;;40.13;;
2175;SDS011;1094;49.902;10.876;2022-12-18T01:47:55;41.17;;;37.03;;
2175;SDS011;1094;49.902;10.876;2022-12-18T01:50:27;54.42;;;39.85;;
2175;SDS011;1094;49.902;10.876;2022-12-18T01:53:02;43.38;;;39.00;;
2175;SDS011;1094;49.902;10.876;2022-12-18T01:55:29;42.38;;;37.88;;
2175;SDS011;1094;49.902;10.876;2022-12-18T01:57:57;56.83;;;41.50;;
2175;SDS011;1094;49.902;10.876;2022-12-18T02:00:24;54.60;;;40.88;;
2175;SDS011;1094;49.902;10.876;2022-12-18T02:02:51;43.00;;;37.47;;
2175;SDS011;1094;49.902;10.876;2022-12-18T02:05:21;44.03;;;39.30;;
2175;SDS011;1094;49.902;10.876;2022-12-18T02:10:24;44.08;;;39.30;;
2175;SDS011;1094;49.902;10.876;2022-12-18T02:15:57;45.80;;;41.00;;
2175;SDS011;1094;49.902;10.876;2022-12-18T02:18:30;47.38;;;42.28;;
2175;SDS011;1094;49.902;10.876;2022-12-18T02:21:00;50.47;;;40.30;;
2175;SDS011;1094;49.902;10.876;2022-12-18T02:23:45;47.55;;;40.50;;
2175;SDS011;1094;49.902;10.876;2022-12-18T02:26:19;50.55;;;39.25;;
2175;SDS011;1094;49.902;10.876;2022-12-18T02:28:51;50.85;;;37.58;;
2175;SDS011;1094;49.902;10.876;2022-12-18T02:31:20;55.33;;;38.25;;
2175;SDS011;1094;49.902;10.876;2022-12-18T02:33:47;42.05;;;37.45;;
2175;SDS011;1094;49.902;10.876;2022-12-18T02:36:14;46.72;;;40.28;;
2175;SDS011;1094;49.902;10.876;2022-12-18T02:38:42;43.28;;;38.53;;
2175;SDS011;1094;49.902;10.876;2022-12-18T02:41:08;44.85;;;40.13;;
2175;SDS011;1094;49.902;10.876;2022-12-18T02:43:35;44.85;;;38.80;;
2175;SDS011;1094;49.902;10.876;2022-12-18T02:46:20;42.67;;;37.20;;
2175;SDS011;1094;49.902;10.876;2022-12-18T02:48:47;53.08;;;39.45;;
2175;SDS011;1094;49.902;10.876;2022-12-18T02:53:51;43.15;;;39.13;;
2175;SDS011;1094;49.902;10.876;2022-12-18T02:56:19;44.70;;;40.08;;
2175;SDS011;1094;49.902;10.876;2022-12-18T03:03:47;47.70;;;40.53;;
2175;SDS011;1094;49.902;10.876;2022-12-18T03:06:21;49.22;;;41.85;;
2175;SDS011;1094;49.902;10.876;2022-12-18T03:08:50;52.08;;;40.20;;
2175;SDS011;1094;49.902;10.876;2022-12-18T03:11:18;44.08;;;39.45;;
2175;SDS011;1094;49.902;10.876;2022-12-18T03:14:04;44.22;;;38.45;;
2175;SDS011;1094;49.902;10.876;2022-12-18T03:16:31;42.80;;;36.90;;
2175;SDS011;1094;49.902;10.876;2022-12-18T03:19:01;61.30;;;39.25;;
2175;SDS011;1094;49.902;10.876;2022-12-18T03:21:29;43.10;;;38.05;;
2175;SDS011;1094;49.902;10.876;2022-12-18T03:23:57;47.00;;;39.10;;
2175;SDS011;1094;49.902;10.876;2022-12-18T03:26:24;48.70;;;39.60;;
2175;SDS011;1094;49.902;10.876;2022-12-18T03:28:51;40.78;;;37.20;;
2175;SDS011;1094;49.902;10.876;2022-12-18T03:31:19;46.15;;;41.35;;
2175;SDS011;1094;49.902;10.876;2022-12-18T03:33:51;40.83;;;36.45;;
2175;SDS011;1094;49.902;10.876;2022-12-18T03:36:18;42.33;;;36.97;;
2175;SDS011;1094;49.902;10.876;2022-12-18T03:38:44;44.75;;;38.90;;
2175;SDS011;1094;49.902;10.876;2022-12-18T03:43:52;42.85;;;38.95;;
2175;SDS011;1094;49.902;10.876;2022-12-18T03:46:24;42.45;;;37.42;;
2175;SDS011;1094;49.902;10.876;2022-12-18T03:48:52;42.90;;;38.25;;
2175;SDS011;1094;49.902;10.876;2022-12-18T03:51:26;44.35;;;38.33;;
2175;SDS011;1094;49.902;10.876;2022-12-18T03:53:55;42.97;;;38.38;;
2175;SDS011;1094;49.902;10.876;2022-12-18T03:56:23;44.13;;;39.50;;
2175;SDS011;1094;49.902;10.876;2022-12-18T03:58:50;41.70;;;37.80;;
2175;SDS011;1094;49.902;10.876;2022-12-18T04:01:17;45.08;;;40.58;;
2175;SDS011;1094;49.902;10.876;2022-12-18T04:03:46;45.60;;;40.67;;
2175;SDS011;1094;49.902;10.876;2022-12-18T04:06:14;42.58;;;38.80;;
2175;SDS011;1094;49.902;10.876;2022-12-18T04:08:40;43.75;;;39.15;;
2175;SDS011;1094;49.902;10.876;2022-12-18T04:11:06;44.95;;;36.55;;
2175;SDS011;1094;49.902;10.876;2022-12-18T04:13:34;41.65;;;37.30;;
2175;SDS011;1094;49.902;10.876;2022-12-18T04:16:00;51.70;;;39.72;;
2175;SDS011;1094;49.902;10.876;2022-12-18T04:18:26;42.22;;;38.13;;
2175;SDS011;1094;49.902;10.876;2022-12-18T04:20:52;41.78;;;37.47;;
2175;SDS011;1094;49.902;10.876;2022-12-18T04:23:18;46.05;;;41.88;;
2175;SDS011;1094;49.902;10.876;2022-12-18T04:25:45;44.07;;;38.10;;
2175;SDS011;1094;49.902;10.876;2022-12-18T04:28:11;44.45;;;39.63;;
2175;SDS011;1094;49.902;10.876;2022-12-18T04:30:37;42.25;;;38.30;;
2175;SDS011;1094;49.902;10.876;2022-12-18T04:33:03;45.30;;;40.38;;
2175;SDS011;1094;49.902;10.876;2022-12-18T04:35:29;45.05;;;40.78;;
2175;SDS011;1094;49.902;10.876;2022-12-18T04:37:55;46.63;;;42.63;;
2175;SDS011;1094;49.902;10.876;2022-12-18T04:40:21;47.73;;;42.97;;
2175;SDS011;1094;49.902;10.876;2022-12-18T04:42:47;45.95;;;41.45;;
2175;SDS011;1094;49.902;10.876;2022-12-18T04:45:13;42.95;;;39.35;;
2175;SDS011;1094;49.902;10.876;2022-12-18T04:47:39;46.70;;;39.85;;
2175;SDS011;1094;49.902;10.876;2022-12-18T04:50:05;45.70;;;41.38;;
2175;SDS011;1094;49.902;10.876;2022-12-18T04:52:31;45.53;;;40.75;;
2175;SDS011;1094;49.902;10.876;2022-12-18T04:57:26;47.53;;;42.75;;
2175;SDS011;1094;49.902;10.876;2022-12-18T04:59:52;49.38;;;44.47;;
2175;SDS011;1094;49.902;10.876;2022-12-18T05:02:18;53.73;;;40.20;;
2175;SDS011;1094;49.902;10.876;2022-12-18T05:04:44;43.72;;;39.10;;
2175;SDS011;1094;49.902;10.876;2022-12-18T05:07:09;48.57;;;43.43;;
2175;SDS011;1094;49.902;10.876;2022-12-18T05:09:35;48.83;;;42.20;;
2175;SDS011;1094;49.902;10.876;2022-12-18T05:12:01;48.97;;;43.78;;
2175;SDS011;1094;49.902;10.876;2022-12-18T05:14:27;50.95;;;45.63;;
2175;SDS011;1094;49.902;10.876;2022-12-18T05:16:54;48.55;;;43.70;;
2175;SDS011;1094;49.902;10.876;2022-12-18T05:19:20;49.83;;;44.50;;
2175;SDS011;1094;49.902;10.876;2022-12-18T05:21:46;55.88;;;42.58;;
2175;SDS011;1094;49.902;10.876;2022-12-18T05:24:12;50.65;;;44.88;;
2175;SDS011;1094;49.902;10.876;2022-12-18T05:26:38;51.53;;;46.30;;
2175;SDS011;1094;49.902;10.876;2022-12-18T05:29:04;65.80;;;47.72;;
2175;SDS011;1094;49.902;10.876;2022-12-18T05:31:30;50.63;;;45.63;;
2175;SDS011;1094;49.902;10.876;2022-12-18T05:33:57;51.57;;;44.80;;
2175;SDS011;1094;49.902;10.876;2022-12-18T05:36:23;44.83;;;40.10;;
2175;SDS011;1094;49.902;10.876;2022-12-18T05:38:49;48.03;;;39.85;;
2175;SDS011;1094;49.902;10.876;2022-12-18T05:41:15;51.00;;;42.50;;
2175;SDS011;1094;49.902;10.876;2022-12-18T05:43:41;46.60;;;41.73;;
2175;SDS011;1094;49.902;10.876;2022-12-18T05:46:17;45.40;;;41.35;;
2175;SDS011;1094;49.902;10.876;2022-12-18T05:48:43;54.90;;;43.00;;
2175;SDS011;1094;49.902;10.876;2022-12-18T05:51:14;49.33;;;44.28;;
2175;SDS011;1094;49.902;10.876;2022-12-18T05:53:41;47.10;;;42.47;;
2175;SDS011;1094;49.902;10.876;2022-12-18T05:56:08;51.78;;;46.05;;
2175;SDS011;1094;49.902;10.876;2022-12-18T05:58:34;51.53;;;45.17;;
2175;SDS011;1094;49.902;10.876;2022-12-18T06:01:14;47.88;;;42.22;;
2175;SDS011;1094;49.902;10.876;2022-12-18T06:03:41;45.78;;;41.50;;
2175;SDS011;1094;49.902;10.876;2022-12-18T06:06:14;45.13;;;40.33;;
2175;SDS011;1094;49.902;10.876;2022-12-18T06:08:40;48.28;;;43.42;;
2175;SDS011;1094;49.902;10.876;2022-12-18T06:11:06;44.03;;;39.83;;
2175;SDS011;1094;49.902;10.876;2022-12-18T06:13:32;49.73;;;42.67;;
2175;SDS011;1094;49.902;10.876;2022-12-18T06:15:58;53.10;;;40.60;;
2175;SDS011;1094;49.902;10.876;2022-12-18T06:18:24;42.67;;;38.53;;
2175;SDS011;1094;49.902;10.876;2022-12-18T06:20:56;50.47;;;42.07;;
2175;SDS011;1094;49.902;10.876;2022-12-18T06:23:22;48.95;;;44.33;;
2175;SDS011;1094;49.902;10.876;2022-12-18T06:25:48;49.60;;;44.88;;
2175;SDS011;1094;49.902;10.876;2022-12-18T06:28:14;54.90;;;49.17;;
2175;SDS011;1094;49.902;10.876;2022-12-18T06:30:40;44.78;;;40.45;;
2175;SDS011;1094;49.902;10.876;2022-12-18T06:33:08;47.70;;;42.90;;
2175;SDS011;1094;49.902;10.876;2022-12-18T06:35:34;48.90;;;43.63;;
2175;SDS011;1094;49.902;10.876;2022-12-18T06:38:01;50.50;;;45.37;;
2175;SDS011;1094;49.902;10.876;2022-12-18T06:40:26;43.97;;;39.80;;
2175;SDS011;1094;49.902;10.876;2022-12-18T06:42:52;42.10;;;38.20;;
2175;SDS011;1094;49.902;10.876;2022-12-18T06:45:18;48.17;;;41.40;;
2175;SDS011;1094;49.902;10.876;2022-12-18T06:47:44;47.97;;;42.25;;
2175;SDS011;1094;49.902;10.876;2022-12-18T06:50:11;45.28;;;39.72;;
2175;SDS011;1094;49.902;10.876;2022-12-18T06:52:37;48.97;;;43.53;;
2175;SDS011;1094;49.902;10.876;2022-12-18T06:55:04;46.38;;;41.50;;
2175;SDS011;1094;49.902;10.876;2022-12-18T06:57:30;46.90;;;41.83;;
2175;SDS011;1094;49.902;10.876;2022-12-18T06:59:56;53.13;;;44.77;;
2175;SDS011;1094;49.902;10.876;2022-12-18T07:02:22;47.40;;;42.40;;
2175;SDS011;1094;49.902;10.876;2022-12-18T07:04:48;44.90;;;40.53;;
2175;SDS011;1094;49.902;10.876;2022-12-18T07:07:14;45.83;;;41.30;;
2175;SDS011;1094;49.902;10.876;2022-12-18T07:09:40;44.87;;;40.97;;
2175;SDS011;1094;49.902;10.876;2022-12-18T07:12:05;45.43;;;36.70;;
2175;SDS011;1094;49.902;10.876;2022-12-18T07:14:32;44.63;;;40.00;;
2175;SDS011;1094;49.902;10.876;2022-12-18T07:16:58;42.13;;;37.95;;
2175;SDS011;1094;49.902;10.876;2022-12-18T07:19:24;51.13;;;41.23;;
2175;SDS011;1094;49.902;10.876;2022-12-18T07:21:51;49.33;;;44.15;;
2175;SDS011;1094;49.902;10.876;2022-12-18T07:24:17;73.93;;;43.22;;
2175;SDS011;1094;49.902;10.876;2022-12-18T07:26:45;45.50;;;40.90;;
2175;SDS011;1094;49.902;10.876;2022-12-18T07:29:11;47.50;;;43.30;;
2175;SDS011;1094;49.902;10.876;2022-12-18T07:31:37;45.43;;;40.97;;
2175;SDS011;1094;49.902;10.876;2022-12-18T07:34:03;44.67;;;40.17;;
2175;SDS011;1094;49.902;10.876;2022-12-18T07:36:29;66.33;;;43.00;;
2175;SDS011;1094;49.902;10.876;2022-12-18T07:38:55;47.25;;;41.95;;
2175;SDS011;1094;49.902;10.876;2022-12-18T07:41:21;46.83;;;42.20;;
2175;SDS011;1094;49.902;10.876;2022-12-18T07:43:47;45.78;;;41.13;;
2175;SDS011;1094;49.902;10.876;2022-12-18T07:46:13;45.60;;;40.83;;
2175;SDS011;1094;49.902;10.876;2022-12-18T07:48:40;43.65;;;37.60;;
2175;SDS011;1094;49.902;10.876;2022-12-18T07:51:06;47.97;;;41.25;;
2175;SDS011;1094;49.902;10.876;2022-12-18T07:53:33;51.10;;;41.63;;
2175;SDS011;1094;49.902;10.876;2022-12-18T07:56:00;46.30;;;41.28;;
2175;SDS011;1094;49.902;10.876;2022-12-18T07:58:26;48.40;;;43.45;;
2175;SDS011;1094;49.902;10.876;2022-12-18T08:00:52;52.15;;;44.53;;
2175;SDS011;1094;49.902;10.876;2022-12-18T08:03:18;55.47;;;43.00;;
2175;SDS011;1094;49.902;10.876;2022-12-18T08:05:44;53.20;;;43.92;;
2175;SDS011;1094;49.902;10.876;2022-12-18T08:08:10;55.60;;;46.43;;
2175;SDS011;1094;49.902;10.876;2022-12-18T08:10:37;54.08;;;43.63;;
2175;SDS011;1094;49.902;10.876;2022-12-18T08:13:04;53.38;;;44.30;;
2175;SDS011;1094;49.902;10.876;2022-12-18T08:15:30;53.10;;;44.80;;
2175;SDS011;1094;49.902;10.876;2022-12-18T08:17:56;61.20;;;45.25;;
2175;SDS011;1094;49.902;10.876;2022-12-18T08:20:22;47.55;;;42.42;;
2175;SDS011;1094;49.902;10.876;2022-12-18T08:22:48;52.67;;;44.72;;
2175;SDS011;1094;49.902;10.876;2022-12-18T08:25:14;49.83;;;44.42;;
2175;SDS011;1094;49.902;10.876;2022-12-18T08:27:41;47.63;;;41.50;;
2175;SDS011;1094;49.902;10.876;2022-12-18T08:30:07;50.85;;;42.58;;
2175;SDS011;1094;49.902;10.876;2022-12-18T08:32:33;49.95;;;45.17;;
2175;SDS011;1094;49.902;10.876;2022-12-18T08:34:59;54.10;;;43.58;;
2175;SDS011;1094;49.902;10.876;2022-12-18T08:37:25;48.20;;;43.03;;
2175;SDS011;1094;49.902;10.876;2022-12-18T08:39:52;45.28;;;40.42;;
2175;SDS011;1094;49.902;10.876;2022-12-18T08:42:18;49.65;;;43.40;;
2175;SDS011;1094;49.902;10.876;2022-12-18T08:45:03;43.85;;;39.55;;
2175;SDS011;1094;49.902;10.876;2022-12-18T08:47:29;47.90;;;43.00;;
2175;SDS011;1094;49.902;10.876;2022-12-18T08:49:55;58.78;;;42.85;;
2175;SDS011;1094;49.902;10.876;2022-12-18T08:52:21;47.00;;;42.27;;
2175;SDS011;1094;49.902;10.876;2022-12-18T08:54:47;51.10;;;45.22;;
2175;SDS011;1094;49.902;10.876;2022-12-18T08:57:13;47.00;;;41.90;;
2175;SDS011;1094;49.902;10.876;2022-12-18T08:59:38;55.08;;;43.90;;
2175;SDS011;1094;49.902;10.876;2022-12-18T09:02:05;47.87;;;42.80;;
2175;SDS011;1094;49.902;10.876;2022-12-18T09:04:31;49.38;;;44.30;;
2175;SDS011;1094;49.902;10.876;2022-12-18T09:06:57;47.10;;;42.37;;
2175;SDS011;1094;49.902;10.876;2022-12-18T09:09:22;47.23;;;42.30;;
2175;SDS011;1094;49.902;10.876;2022-12-18T09:11:48;48.33;;;42.50;;
2175;SDS011;1094;49.902;10.876;2022-12-18T09:14:14;47.60;;;42.30;;
2175;SDS011;1094;49.902;10.876;2022-12-18T09:16:40;49.65;;;44.47;;
2175;SDS011;1094;49.902;10.876;2022-12-18T09:19:07;48.13;;;42.72;;
2175;SDS011;1094;49.902;10.876;2022-12-18T09:21:33;54.35;;;43.30;;
2175;SDS011;1094;49.902;10.876;2022-12-18T09:24:04;50.83;;;44.92;;
2175;SDS011;1094;49.902;10.876;2022-12-18T09:26:30;50.88;;;45.30;;
2175;SDS011;1094;49.902;10.876;2022-12-18T09:28:56;51.72;;;42.00;;
2175;SDS011;1094;49.902;10.876;2022-12-18T09:31:23;47.78;;;42.00;;
2175;SDS011;1094;49.902;10.876;2022-12-18T09:33:49;49.50;;;43.20;;
2175;SDS011;1094;49.902;10.876;2022-12-18T09:36:16;47.10;;;42.50;;
2175;SDS011;1094;49.902;10.876;2022-12-18T09:38:42;51.83;;;44.20;;
2175;SDS011;1094;49.902;10.876;2022-12-18T09:41:17;52.95;;;42.60;;
2175;SDS011;1094;49.902;10.876;2022-12-18T09:43:51;50.00;;;44.45;;
2175;SDS011;1094;49.902;10.876;2022-12-18T09:46:22;48.67;;;43.60;;
2175;SDS011;1094;49.902;10.876;2022-12-18T09:48:51;54.95;;;42.58;;
2175;SDS011;1094;49.902;10.876;2022-12-18T09:51:19;48.07;;;42.97;;
2175;SDS011;1094;49.902;10.876;2022-12-18T09:53:47;52.37;;;42.87;;
2175;SDS011;1094;49.902;10.876;2022-12-18T09:56:16;46.00;;;39.47;;
2175;SDS011;1094;49.902;10.876;2022-12-18T09:58:46;45.87;;;41.17;;
2175;SDS011;1094;49.902;10.876;2022-12-18T10:01:14;48.43;;;43.53;;
2175;SDS011;1094;49.902;10.876;2022-12-18T10:03:41;44.00;;;39.80;;
2175;SDS011;1094;49.902;10.876;2022-12-18T10:06:11;45.33;;;40.57;;
2175;SDS011;1094;49.902;10.876;2022-12-18T10:13:57;50.37;;;45.03;;
2175;SDS011;1094;49.902;10.876;2022-12-18T10:16:36;47.27;;;42.20;;
2175;SDS011;1094;49.902;10.876;2022-12-18T10:26:59;47.53;;;42.63;;
2175;SDS011;1094;49.902;10.876;2022-12-18T10:29:30;45.87;;;41.07;;
2175;SDS011;1094;49.902;10.876;2022-12-18T10:31:56;47.40;;;42.50;;
2175;SDS011;1094;49.902;10.876;2022-12-18T10:34:23;52.90;;;44.23;;
2175;SDS011;1094;49.902;10.876;2022-12-18T10:36:49;48.93;;;42.27;;
2175;SDS011;1094;49.902;10.876;2022-12-18T10:39:19;47.90;;;43.20;;
2175;SDS011;1094;49.902;10.876;2022-12-18T10:41:47;46.70;;;42.00;;
2175;SDS011;1094;49.902;10.876;2022-12-18T10:44:18;45.97;;;41.40;;
2175;SDS011;1094;49.902;10.876;2022-12-18T10:46:54;46.30;;;41.70;;
2175;SDS011;1094;49.902;10.876;2022-12-18T10:49:32;45.60;;;40.93;;
2175;SDS011;1094;49.902;10.876;2022-12-18T10:54:31;43.00;;;38.57;;
2175;SDS011;1094;49.902;10.876;2022-12-18T10:57:43;43.63;;;39.17;;
2175;SDS011;1094;49.902;10.876;2022-12-18T10:59:54;45.87;;;39.30;;
2175;SDS011;1094;49.902;10.876;2022-12-18T11:02:36;42.50;;;38.00;;
2175;SDS011;1094;49.902;10.876;2022-12-18T11:05:03;44.60;;;40.20;;
2175;SDS011;1094;49.902;10.876;2022-12-18T11:07:49;44.70;;;39.87;;
2175;SDS011;1094;49.902;10.876;2022-12-18T11:10:16;44.67;;;40.07;;
2175;SDS011;1094;49.902;10.876;2022-12-18T11:12:43;45.00;;;40.30;;
2175;SDS011;1094;49.902;10.876;2022-12-18T11:15:16;45.93;;;41.37;;
2175;SDS011;1094;49.902;10.876;2022-12-18T11:17:42;45.30;;;40.70;;
2175;SDS011;1094;49.902;10.876;2022-12-18T11:20:19;44.27;;;39.60;;
2175;SDS011;1094;49.902;10.876;2022-12-18T11:22:59;44.93;;;40.27;;
2175;SDS011;1094;49.902;10.876;2022-12-18T11:25:25;41.87;;;37.97;;
2175;SDS011;1094;49.902;10.876;2022-12-18T11:27:59;40.03;;;36.33;;
2175;SDS011;1094;49.902;10.876;2022-12-18T11:30:26;42.93;;;38.43;;
2175;SDS011;1094;49.902;10.876;2022-12-18T11:32:54;42.07;;;37.83;;
2175;SDS011;1094;49.902;10.876;2022-12-18T11:37:54;41.70;;;37.03;;
2175;SDS011;1094;49.902;10.876;2022-12-18T11:40:28;41.57;;;37.60;;
2175;SDS011;1094;49.902;10.876;2022-12-18T11:43:17;41.47;;;37.10;;
2175;SDS011;1094;49.902;10.876;2022-12-18T11:45:55;39.53;;;35.40;;
2175;SDS011;1094;49.902;10.876;2022-12-18T11:48:26;39.23;;;35.53;;
2175;SDS011;1094;49.902;10.876;2022-12-18T11:50:56;45.37;;;40.90;;
2175;SDS011;1094;49.902;10.876;2022-12-18T11:53:23;42.33;;;37.90;;
2175;SDS011;1094;49.902;10.876;2022-12-18T12:05:51;42.63;;;38.27;;
2175;SDS011;1094;49.902;10.876;2022-12-18T12:13:44;45.07;;;39.73;;
2175;SDS011;1094;49.902;10.876;2022-12-18T12:18:53;41.17;;;37.03;;
2175;SDS011;1094;49.902;10.876;2022-12-18T12:29:18;40.13;;;36.17;;
2175;SDS011;1094;49.902;10.876;2022-12-18T12:39:27;40.40;;;36.37;;
2175;SDS011;1094;49.902;10.876;2022-12-18T12:41:53;40.90;;;36.70;;
2175;SDS011;1094;49.902;10.876;2022-12-18T12:44:48;41.30;;;37.07;;
2175;SDS011;1094;49.902;10.876;2022-12-18T12:47:16;41.30;;;37.10;;
2175;SDS011;1094;49.902;10.876;2022-12-18T12:49:43;40.73;;;36.70;;
2175;SDS011;1094;49.902;10.876;2022-12-18T12:52:13;43.23;;;37.40;;
2175;SDS011;1094;49.902;10.876;2022-12-18T12:54:40;37.60;;;34.10;;
2175;SDS011;1094;49.902;10.876;2022-12-18T12:57:12;40.40;;;36.30;;
2175;SDS011;1094;49.902;10.876;2022-12-18T13:02:14;42.90;;;38.23;;
2175;SDS011;1094;49.902;10.876;2022-12-18T13:05:01;43.27;;;38.40;;
2175;SDS011;1094;49.902;10.876;2022-12-18T13:20:33;41.33;;;36.65;;
2175;SDS011;1094;49.902;10.876;2022-12-18T13:22:59;40.65;;;34.47;;
2175;SDS011;1094;49.902;10.876;2022-12-18T13:27:59;40.70;;;36.30;;
2175;SDS011;1094;49.902;10.876;2022-12-18T13:41:03;39.03;;;35.38;;
2175;SDS011;1094;49.902;10.876;2022-12-18T13:43:31;42.97;;;37.78;;
2175;SDS011;1094;49.902;10.876;2022-12-18T13:45:59;45.20;;;37.42;;
2175;SDS011;1094;49.902;10.876;2022-12-18T13:48:26;40.97;;;36.88;;
2175;SDS011;1094;49.902;10.876;2022-12-18T13:50:55;50.85;;;38.35;;
2175;SDS011;1094;49.902;10.876;2022-12-18T13:53:23;41.50;;;36.17;;
2175;SDS011;1094;49.902;10.876;2022-12-18T13:55:50;41.67;;;37.25;;
2175;SDS011;1094;49.902;10.876;2022-12-18T13:58:16;43.97;;;39.23;;
2175;SDS011;1094;49.902;10.876;2022-12-18T14:00:42;44.20;;;40.10;;
2175;SDS011;1094;49.902;10.876;2022-12-18T14:03:16;41.50;;;37.20;;
2175;SDS011;1094;49.902;10.876;2022-12-18T14:05:43;43.30;;;39.08;;
2175;SDS011;1094;49.902;10.876;2022-12-18T14:08:14;42.25;;;37.63;;
2175;SDS011;1094;49.902;10.876;2022-12-18T14:10:41;41.55;;;37.08;;
2175;SDS011;1094;49.902;10.876;2022-12-18T14:13:08;43.47;;;39.22;;
2175;SDS011;1094;49.902;10.876;2022-12-18T14:15:35;42.65;;;38.47;;
2175;SDS011;1094;49.902;10.876;2022-12-18T14:20:50;42.20;;;37.60;;
2175;SDS011;1094;49.902;10.876;2022-12-18T14:25:58;48.40;;;42.35;;
2175;SDS011;1094;49.902;10.876;2022-12-18T14:28:24;44.88;;;40.13;;
2175;SDS011;1094;49.902;10.876;2022-12-18T14:30:51;45.00;;;38.58;;
2175;SDS011;1094;49.902;10.876;2022-12-18T14:33:18;44.10;;;38.45;;
2175;SDS011;1094;49.902;10.876;2022-12-18T14:35:58;45.00;;;39.75;;
2175;SDS011;1094;49.902;10.876;2022-12-18T14:43:27;46.10;;;40.10;;
2175;SDS011;1094;49.902;10.876;2022-12-18T14:45:53;44.28;;;39.60;;
2175;SDS011;1094;49.902;10.876;2022-12-18T14:48:20;49.35;;;38.42;;
2175;SDS011;1094;49.902;10.876;2022-12-18T14:50:57;42.60;;;38.28;;
2175;SDS011;1094;49.902;10.876;2022-12-18T14:53:28;41.22;;;37.38;;
2175;SDS011;1094;49.902;10.876;2022-12-18T14:55:56;48.60;;;39.03;;
2175;SDS011;1094;49.902;10.876;2022-12-18T14:58:22;41.88;;;37.40;;
2175;SDS011;1094;49.902;10.876;2022-12-18T15:00:48;42.37;;;37.83;;
2175;SDS011;1094;49.902;10.876;2022-12-18T15:03:17;45.67;;;38.28;;
2175;SDS011;1094;49.902;10.876;2022-12-18T15:05:44;50.85;;;39.03;;
2175;SDS011;1094;49.902;10.876;2022-12-18T15:11:23;42.47;;;37.90;;
2175;SDS011;1094;49.902;10.876;2022-12-18T15:13:50;44.70;;;39.95;;
2175;SDS011;1094;49.902;10.876;2022-12-18T15:16:16;44.97;;;40.23;;
2175;SDS011;1094;49.902;10.876;2022-12-18T15:18:42;43.53;;;38.88;;
2175;SDS011;1094;49.902;10.876;2022-12-18T15:21:10;42.17;;;37.85;;
2175;SDS011;1094;49.902;10.876;2022-12-18T15:26:09;43.00;;;37.72;;
2175;SDS011;1094;49.902;10.876;2022-12-18T15:28:39;45.33;;;38.55;;
2175;SDS011;1094;49.902;10.876;2022-12-18T15:33:36;43.03;;;37.65;;
2175;SDS011;1094;49.902;10.876;2022-12-18T15:36:04;42.92;;;37.75;;
2175;SDS011;1094;49.902;10.876;2022-12-18T15:38:30;41.72;;;37.17;;
2175;SDS011;1094;49.902;10.876;2022-12-18T15:40:57;42.53;;;37.55;;
2175;SDS011;1094;49.902;10.876;2022-12-18T15:43:23;48.97;;;38.72;;
2175;SDS011;1094;49.902;10.876;2022-12-18T15:46:00;43.40;;;37.70;;
2175;SDS011;1094;49.902;10.876;2022-12-18T15:48:26;48.35;;;37.45;;
2175;SDS011;1094;49.902;10.876;2022-12-18T15:50:52;45.15;;;39.78;;
2175;SDS011;1094;49.902;10.876;2022-12-18T15:53:18;44.17;;;39.40;;
2175;SDS011;1094;49.902;10.876;2022-12-18T15:55:44;43.65;;;37.70;;
2175;SDS011;1094;49.902;10.876;2022-12-18T15:58:29;49.95;;;37.92;;
2175;SDS011;1094;49.902;10.876;2022-12-18T16:00:55;43.03;;;37.00;;
2175;SDS011;1094;49.902;10.876;2022-12-18T16:03:21;45.85;;;39.80;;
2175;SDS011;1094;49.902;10.876;2022-12-18T16:05:47;51.00;;;38.30;;
2175;SDS011;1094;49.902;10.876;2022-12-18T16:08:13;46.20;;;38.33;;
2175;SDS011;1094;49.902;10.876;2022-12-18T16:10:39;48.47;;;39.70;;
2175;SDS011;1094;49.902;10.876;2022-12-18T16:13:05;54.37;;;41.07;;
2175;SDS011;1094;49.902;10.876;2022-12-18T16:15:31;54.30;;;40.60;;
2175;SDS011;1094;49.902;10.876;2022-12-18T16:17:57;47.73;;;41.13;;
2175;SDS011;1094;49.902;10.876;2022-12-18T16:20:23;44.03;;;39.27;;
2175;SDS011;1094;49.902;10.876;2022-12-18T16:22:49;44.47;;;39.70;;
2175;SDS011;1094;49.902;10.876;2022-12-18T16:27:47;51.70;;;39.45;;
2175;SDS011;1094;49.902;10.876;2022-12-18T16:30:14;50.60;;;40.25;;
2175;SDS011;1094;49.902;10.876;2022-12-18T16:32:40;49.30;;;41.13;;
2175;SDS011;1094;49.902;10.876;2022-12-18T16:35:08;52.53;;;40.22;;
2175;SDS011;1094;49.902;10.876;2022-12-18T16:37:34;47.40;;;38.55;;
2175;SDS011;1094;49.902;10.876;2022-12-18T16:40:00;45.03;;;40.27;;